Time;durP1;ratioP1;P1;durP2;ratioP2;P2;SDS_P1;SDS_P2;PMS_P1;PMS_P2;Temp;Humidity;BMP_temperature;BMP_pressure;BME280_temperature;BME280_humidity;BME280_pressure;Samples;Min_cycle;Max_cycle;Signal;HPM_P1;HPM_P2
2023/10/29 00:00:46;;;;;;;5.00;4.50;;;9.90;99.90;;;;;;5018114;28;20521;-60
2023/10/29 00:03:14;;;;;;;6.93;4.93;;;9.90;99.90;;;;;;5020292;28;20570;-59
2023/10/29 00:05:42;;;;;;;7.73;5.43;;;9.80;99.90;;;;;;5019475;28;20478;-60
2023/10/29 00:08:11;;;;;;;5.37;4.93;;;9.80;99.90;;;;;;5018150;28;20939;-59
2023/10/29 00:10:41;;;;;;;6.00;5.50;;;9.80;99.90;;;;;;5018736;28;20574;-59
2023/10/29 00:13:09;;;;;;;6.43;5.47;;;9.80;99.90;;;;;;5020900;28;20471;-60
2023/10/29 00:15:37;;;;;;;6.50;5.80;;;9.80;99.90;;;;;;5022053;28;20632;-60
2023/10/29 00:18:08;;;;;;;5.90;5.33;;;9.80;99.90;;;;;;5018266;28;20465;-60
2023/10/29 00:20:36;;;;;;;5.80;5.30;;;9.90;99.90;;;;;;5016634;28;20570;-59
2023/10/29 00:23:05;;;;;;;6.10;5.60;;;9.90;99.90;;;;;;5018509;28;20973;-60
2023/10/29 00:25:33;;;;;;;5.50;5.00;;;9.80;99.90;;;;;;5019740;28;20575;-60
2023/10/29 00:28:02;;;;;;;5.60;5.20;;;9.80;99.90;;;;;;5018869;28;20481;-59
2023/10/29 00:30:30;;;;;;;5.63;5.03;;;9.90;99.90;;;;;;5016252;28;20604;-59
2023/10/29 00:32:58;;;;;;;5.83;5.00;;;9.80;99.90;;;;;;5017899;28;20555;-60
2023/10/29 00:35:26;;;;;;;5.63;5.13;;;9.90;99.90;;;;;;5019077;28;20471;-60
2023/10/29 00:37:55;;;;;;;6.37;5.37;;;9.90;99.90;;;;;;5019133;28;20474;-60
2023/10/29 00:40:23;;;;;;;7.57;5.63;;;9.80;99.90;;;;;;5014645;28;20510;-60
2023/10/29 00:42:51;;;;;;;6.80;5.60;;;9.80;99.90;;;;;;5020829;28;20502;-60
2023/10/29 00:45:20;;;;;;;5.90;5.03;;;9.90;99.90;;;;;;5023639;28;20527;-60
2023/10/29 00:47:48;;;;;;;6.30;5.07;;;9.90;99.90;;;;;;5022815;28;20500;-60
2023/10/29 00:50:17;;;;;;;4.90;4.40;;;9.90;99.90;;;;;;5019181;28;20885;-60
2023/10/29 00:52:45;;;;;;;6.03;5.43;;;9.90;99.90;;;;;;5016923;28;20563;-60
2023/10/29 00:55:13;;;;;;;7.83;4.83;;;9.90;99.90;;;;;;5018558;28;21632;-59
2023/10/29 00:57:42;;;;;;;5.77;5.00;;;9.90;99.90;;;;;;5020775;28;20472;-60
2023/10/29 01:00:11;;;;;;;6.50;5.30;;;9.90;99.90;;;;;;5019548;28;20503;-59
2023/10/29 01:02:41;;;;;;;5.20;4.70;;;9.90;99.90;;;;;;5018215;28;20467;-58
2023/10/29 01:05:09;;;;;;;5.60;5.10;;;9.90;99.90;;;;;;5018507;28;20972;-60
2023/10/29 01:07:37;;;;;;;6.97;5.37;;;9.90;99.90;;;;;;5019383;28;20568;-59
2023/10/29 01:10:06;;;;;;;8.23;5.23;;;9.90;99.90;;;;;;5017603;28;20599;-60
2023/10/29 01:12:34;;;;;;;9.50;5.20;;;9.90;99.90;;;;;;5019201;28;20475;-59
2023/10/29 01:15:03;;;;;;;6.83;5.17;;;9.90;99.90;;;;;;5019558;28;20947;-59
2023/10/29 01:17:31;;;;;;;7.30;5.30;;;9.90;99.90;;;;;;5019641;28;20483;-59
2023/10/29 01:20:03;;;;;;;5.20;4.70;;;9.90;99.90;;;;;;5018771;28;20563;-59
2023/10/29 01:22:33;;;;;;;5.10;4.60;;;9.90;99.90;;;;;;5014059;28;20488;-58
2023/10/29 01:25:02;;;;;;;6.30;5.07;;;10.00;99.90;;;;;;5012855;28;20502;-59
2023/10/29 01:27:30;;;;;;;5.70;4.93;;;9.90;99.90;;;;;;5018214;28;20980;-59
2023/10/29 01:29:58;;;;;;;5.47;4.97;;;10.00;99.90;;;;;;5020394;28;20604;-60
2023/10/29 01:32:26;;;;;;;9.03;5.40;;;10.00;99.90;;;;;;5018941;28;20484;-60
2023/10/29 01:34:55;;;;;;;5.30;4.30;;;9.90;99.90;;;;;;5019053;28;20558;-59
2023/10/29 01:37:24;;;;;;;5.80;4.90;;;9.90;99.90;;;;;;5015144;28;20482;-59
2023/10/29 01:39:52;;;;;;;4.67;4.27;;;10.00;99.90;;;;;;5016364;28;20572;-59
2023/10/29 01:42:21;;;;;;;4.47;4.07;;;10.00;99.90;;;;;;5019126;28;20700;-59
2023/10/29 01:44:49;;;;;;;5.57;5.17;;;9.90;99.90;;;;;;5016450;28;20537;-58
2023/10/29 01:47:17;;;;;;;5.57;4.50;;;9.90;99.90;;;;;;5017492;28;20860;-59
2023/10/29 01:49:45;;;;;;;4.60;4.03;;;9.90;99.90;;;;;;5015233;28;20496;-59
2023/10/29 01:52:13;;;;;;;7.53;4.43;;;10.00;99.90;;;;;;5016448;28;20492;-60
2023/10/29 01:54:43;;;;;;;4.50;4.20;;;10.00;99.90;;;;;;5019199;28;20595;-59
2023/10/29 01:57:12;;;;;;;4.57;4.20;;;10.00;99.90;;;;;;5017739;28;20688;-59
2023/10/29 01:59:40;;;;;;;4.50;4.10;;;10.00;99.90;;;;;;5018529;28;20773;-60
2023/10/29 02:02:09;;;;;;;5.40;3.80;;;10.10;99.90;;;;;;5016034;28;20475;-60
2023/10/29 02:04:37;;;;;;;6.10;4.37;;;10.00;99.90;;;;;;5016825;28;20988;-59
2023/10/29 02:07:05;;;;;;;4.40;4.00;;;10.00;99.90;;;;;;5014640;28;20570;-60
2023/10/29 02:09:33;;;;;;;4.80;4.23;;;10.00;99.90;;;;;;5013817;28;20483;-59
2023/10/29 02:12:03;;;;;;;5.73;4.30;;;10.00;99.90;;;;;;5016770;28;20499;-60
2023/10/29 02:14:32;;;;;;;7.57;4.17;;;10.00;99.90;;;;;;5017235;28;20483;-60
2023/10/29 02:17:00;;;;;;;5.87;4.90;;;10.00;99.90;;;;;;5015594;28;20472;-59
2023/10/29 02:19:28;;;;;;;4.50;3.97;;;10.00;99.90;;;;;;5019092;28;20496;-59
2023/10/29 02:21:58;;;;;;;4.50;4.10;;;10.00;99.90;;;;;;5017182;28;20487;-59
2023/10/29 02:24:26;;;;;;;6.70;4.03;;;10.00;99.90;;;;;;5015056;28;20559;-63
2023/10/29 02:26:54;;;;;;;6.10;4.70;;;10.00;99.90;;;;;;5018706;28;20508;-59
2023/10/29 02:29:21;;;;;;;5.10;4.60;;;10.00;99.90;;;;;;5017505;28;21015;-60
2023/10/29 02:31:49;;;;;;;4.90;4.40;;;10.00;99.90;;;;;;5017853;28;20579;-60
2023/10/29 02:34:17;;;;;;;5.13;4.53;;;10.00;99.90;;;;;;5016151;28;20558;-60
2023/10/29 02:36:45;;;;;;;4.97;4.47;;;10.00;99.90;;;;;;5018447;28;21019;-59
2023/10/29 02:39:14;;;;;;;7.23;4.80;;;10.00;99.90;;;;;;5013642;28;20523;-59
2023/10/29 02:41:42;;;;;;;4.30;3.90;;;10.00;99.90;;;;;;5012641;28;20938;-59
2023/10/29 02:44:10;;;;;;;4.90;4.50;;;10.00;99.90;;;;;;5017219;28;20478;-58
2023/10/29 02:46:38;;;;;;;4.50;4.00;;;10.00;99.90;;;;;;5018254;28;20646;-60
2023/10/29 02:49:06;;;;;;;4.60;4.20;;;10.00;99.90;;;;;;5018380;28;20590;-59
2023/10/29 02:51:34;;;;;;;4.90;4.50;;;10.00;99.90;;;;;;5015257;28;20511;-59
2023/10/29 02:54:03;;;;;;;5.30;4.37;;;10.00;99.90;;;;;;5018000;28;20504;-59
2023/10/29 02:56:32;;;;;;;5.40;4.37;;;10.00;99.90;;;;;;5014778;28;20570;-59
2023/10/29 02:59:01;;;;;;;5.50;4.20;;;10.00;99.90;;;;;;5013613;28;20501;-59
2023/10/29 03:01:29;;;;;;;4.53;4.10;;;10.10;99.90;;;;;;5016496;28;20480;-59
2023/10/29 03:03:57;;;;;;;4.47;4.03;;;10.10;99.90;;;;;;5016103;28;20893;-59
2023/10/29 03:06:25;;;;;;;4.67;4.23;;;10.10;99.90;;;;;;5016697;28;20471;-59
2023/10/29 03:08:53;;;;;;;5.20;4.00;;;10.10;99.90;;;;;;5016531;28;20498;-59
2023/10/29 03:11:21;;;;;;;4.70;3.70;;;10.10;99.90;;;;;;5015859;28;20483;-58
2023/10/29 03:13:50;;;;;;;6.80;4.13;;;10.20;99.90;;;;;;5015131;28;20984;-59
2023/10/29 03:16:18;;;;;;;5.63;3.80;;;10.10;99.90;;;;;;5016900;28;20474;-59
2023/10/29 03:18:48;;;;;;;5.23;4.13;;;10.20;99.90;;;;;;5020293;28;20737;-60
2023/10/29 03:21:17;;;;;;;4.23;3.83;;;10.10;99.90;;;;;;5020831;28;20602;-59
2023/10/29 03:23:45;;;;;;;4.37;3.73;;;10.10;99.90;;;;;;5020664;28;20480;-59
2023/10/29 03:26:13;;;;;;;4.47;4.00;;;10.20;99.90;;;;;;5018260;28;20478;-59
2023/10/29 03:28:41;;;;;;;4.17;3.77;;;10.20;99.90;;;;;;5022396;28;20514;-59
2023/10/29 03:31:15;;;;;;;4.93;4.50;;;10.20;99.90;;;;;;5019717;28;20514;-60
2023/10/29 03:33:43;;;;;;;4.30;3.90;;;10.20;99.90;;;;;;5019863;28;20503;-59
2023/10/29 03:36:12;;;;;;;4.27;3.93;;;10.30;99.90;;;;;;5020443;28;20976;-58
2023/10/29 03:38:40;;;;;;;4.47;3.77;;;10.30;99.90;;;;;;5018193;28;20507;-60
2023/10/29 03:41:19;;;;;;;3.80;3.50;;;10.30;99.90;;;;;;5018670;28;20541;-59
2023/10/29 03:43:47;;;;;;;4.70;4.27;;;10.30;99.90;;;;;;5019772;28;20539;-59
2023/10/29 03:46:17;;;;;;;4.33;3.93;;;10.30;99.90;;;;;;5017900;28;20503;-61
2023/10/29 03:48:45;;;;;;;4.50;3.63;;;10.30;99.90;;;;;;5017648;28;20850;-59
2023/10/29 03:51:14;;;;;;;4.30;3.90;;;10.30;99.90;;;;;;5020312;28;20578;-59
2023/10/29 03:53:42;;;;;;;4.30;3.80;;;10.30;99.90;;;;;;5018017;28;20574;-59
2023/10/29 03:56:10;;;;;;;4.17;3.87;;;10.30;99.90;;;;;;5021081;28;20476;-59
2023/10/29 03:58:38;;;;;;;4.00;3.70;;;10.30;99.90;;;;;;5016737;28;20477;-60
2023/10/29 04:01:06;;;;;;;6.20;3.90;;;10.40;99.90;;;;;;5014385;28;20567;-59
2023/10/29 04:03:35;;;;;;;4.00;3.67;;;10.40;99.90;;;;;;5018891;28;20474;-59
2023/10/29 04:06:09;;;;;;;4.20;3.90;;;10.40;99.90;;;;;;5020447;28;20472;-59
2023/10/29 04:08:38;;;;;;;3.70;3.50;;;10.40;99.90;;;;;;5015518;28;20583;-58
2023/10/29 04:11:06;;;;;;;3.87;3.57;;;10.40;99.90;;;;;;5018689;28;20475;-59
2023/10/29 04:13:34;;;;;;;4.00;3.70;;;10.50;99.90;;;;;;5014340;28;20471;-59
2023/10/29 04:16:02;;;;;;;4.43;4.03;;;10.50;99.90;;;;;;5014741;28;21067;-60
2023/10/29 04:18:31;;;;;;;3.83;3.57;;;10.50;99.90;;;;;;5020788;28;20514;-59
2023/10/29 04:21:02;;;;;;;3.70;3.40;;;10.40;99.90;;;;;;5021569;28;20482;-59
2023/10/29 04:23:30;;;;;;;4.10;3.70;;;10.40;99.90;;;;;;5018387;28;20464;-59
2023/10/29 04:25:58;;;;;;;4.57;4.17;;;10.40;99.90;;;;;;5017276;28;20483;-59
2023/10/29 04:28:26;;;;;;;4.07;3.77;;;10.40;99.90;;;;;;5018505;28;20567;-59
2023/10/29 04:30:55;;;;;;;4.83;4.53;;;10.40;99.90;;;;;;5019690;28;21098;-59
2023/10/29 04:33:24;;;;;;;4.70;4.30;;;10.50;99.90;;;;;;5019717;28;20475;-59
2023/10/29 04:35:52;;;;;;;4.80;4.40;;;10.40;99.90;;;;;;5018593;28;20471;-59
2023/10/29 04:38:21;;;;;;;4.53;4.07;;;10.50;99.90;;;;;;5019992;28;20476;-59
2023/10/29 04:40:50;;;;;;;4.47;4.07;;;10.50;99.90;;;;;;5015243;28;20613;-60
2023/10/29 04:43:18;;;;;;;5.20;4.80;;;10.50;99.90;;;;;;5018388;28;20499;-59
2023/10/29 04:45:46;;;;;;;4.83;4.27;;;10.50;99.90;;;;;;5017182;28;20503;-59
2023/10/29 04:48:16;;;;;;;4.97;4.57;;;10.50;99.90;;;;;;5020673;28;20471;-59
2023/10/29 04:50:44;;;;;;;6.53;4.70;;;10.50;99.90;;;;;;5015529;28;20484;-59
2023/10/29 04:53:12;;;;;;;5.50;4.33;;;10.60;99.90;;;;;;5020820;28;20495;-59
2023/10/29 04:55:42;;;;;;;4.83;4.40;;;10.60;99.90;;;;;;5019479;28;20500;-60
2023/10/29 04:58:10;;;;;;;4.50;4.10;;;10.60;99.90;;;;;;5019320;28;20562;-60
2023/10/29 05:00:38;;;;;;;4.87;4.10;;;10.60;99.90;;;;;;5018446;28;20504;-60
2023/10/29 05:03:06;;;;;;;4.33;3.83;;;10.60;99.90;;;;;;5018048;28;20568;-59
2023/10/29 05:05:34;;;;;;;4.80;4.40;;;10.70;99.90;;;;;;5016016;28;20471;-59
2023/10/29 05:08:02;;;;;;;4.47;4.07;;;10.60;99.90;;;;;;5019267;28;20468;-59
2023/10/29 05:10:30;;;;;;;4.60;4.10;;;10.60;99.90;;;;;;5017211;28;20563;-60
2023/10/29 05:13:00;;;;;;;5.73;4.50;;;10.60;99.90;;;;;;5018012;28;20596;-60
2023/10/29 05:15:29;;;;;;;4.27;3.97;;;10.70;99.90;;;;;;5014733;28;20555;-58
2023/10/29 05:17:57;;;;;;;4.47;4.07;;;10.70;99.90;;;;;;5017258;28;20471;-60
2023/10/29 05:20:26;;;;;;;4.27;3.73;;;10.70;99.90;;;;;;5015642;28;20568;-59
2023/10/29 05:22:53;;;;;;;3.60;3.33;;;10.70;99.90;;;;;;5018530;28;20953;-59
2023/10/29 05:25:21;;;;;;;5.10;4.70;;;10.70;99.90;;;;;;5020073;28;20476;-59
2023/10/29 05:27:53;;;;;;;4.10;3.80;;;10.70;99.90;;;;;;5017494;28;20475;-59
2023/10/29 05:30:23;;;;;;;4.50;4.10;;;10.70;99.90;;;;;;5015198;28;20536;-59
2023/10/29 05:32:51;;;;;;;4.90;4.10;;;10.70;99.90;;;;;;5020892;28;20491;-59
2023/10/29 05:35:21;;;;;;;4.40;4.00;;;10.70;99.90;;;;;;5017355;28;20525;-59
2023/10/29 05:37:49;;;;;;;4.57;3.80;;;10.70;99.90;;;;;;5016601;28;20554;-59
2023/10/29 05:40:17;;;;;;;4.07;3.77;;;10.80;99.90;;;;;;5016018;28;20491;-59
2023/10/29 05:42:45;;;;;;;3.90;3.60;;;10.80;99.90;;;;;;5016078;28;20555;-59
2023/10/29 05:45:13;;;;;;;6.63;4.90;;;10.80;99.90;;;;;;5019608;28;20480;-59
2023/10/29 05:47:42;;;;;;;4.80;4.40;;;10.80;99.90;;;;;;5017105;28;20908;-60
2023/10/29 05:50:11;;;;;;;3.80;3.50;;;10.80;99.90;;;;;;5017952;28;20547;-59
2023/10/29 05:52:39;;;;;;;4.50;3.60;;;10.80;99.90;;;;;;5019051;28;20491;-59
2023/10/29 05:55:07;;;;;;;3.90;3.60;;;10.80;99.90;;;;;;5019830;28;20993;-59
2023/10/29 05:57:35;;;;;;;3.97;3.60;;;10.90;99.90;;;;;;5021582;28;20469;-59
2023/10/29 06:00:04;;;;;;;3.70;3.40;;;10.90;99.90;;;;;;5018365;28;20586;-59
2023/10/29 06:02:33;;;;;;;3.67;3.30;;;10.90;99.90;;;;;;5016919;28;20476;-60
2023/10/29 06:05:02;;;;;;;4.03;3.30;;;10.90;99.90;;;;;;5014030;28;20467;-60
2023/10/29 06:07:30;;;;;;;3.70;3.40;;;10.90;99.90;;;;;;5017279;28;20464;-59
2023/10/29 06:09:58;;;;;;;4.57;4.17;;;10.90;99.90;;;;;;5014405;28;20514;-59
2023/10/29 06:12:26;;;;;;;3.30;3.07;;;10.90;99.90;;;;;;5018126;28;20572;-59
2023/10/29 06:14:55;;;;;;;5.90;3.57;;;10.90;99.90;;;;;;5016628;28;20550;-59
2023/10/29 06:17:23;;;;;;;4.37;3.43;;;10.90;99.90;;;;;;5017745;28;20468;-59
2023/10/29 06:19:54;;;;;;;3.93;3.63;;;10.90;99.90;;;;;;5018323;28;20501;-59
2023/10/29 06:22:23;;;;;;;4.33;3.17;;;11.00;99.90;;;;;;5013808;28;21469;-61
2023/10/29 06:24:51;;;;;;;3.30;3.00;;;11.00;99.90;;;;;;5015946;28;20534;-61
2023/10/29 06:27:19;;;;;;;3.37;3.07;;;11.00;99.90;;;;;;5019271;28;21221;-61
2023/10/29 06:29:47;;;;;;;3.10;2.80;;;11.10;99.90;;;;;;5021033;28;20501;-61
2023/10/29 06:32:16;;;;;;;4.03;3.23;;;11.10;99.90;;;;;;5017556;28;20516;-61
2023/10/29 06:34:44;;;;;;;4.40;3.50;;;11.10;99.90;;;;;;5007277;28;20475;-59
2023/10/29 06:37:12;;;;;;;4.33;3.00;;;11.20;99.90;;;;;;5017486;28;21054;-61
2023/10/29 06:39:41;;;;;;;3.20;2.80;;;11.20;99.90;;;;;;5013527;28;21044;-60
2023/10/29 06:42:09;;;;;;;3.10;2.63;;;11.30;99.90;;;;;;5019201;28;20485;-60
2023/10/29 06:44:37;;;;;;;3.00;2.70;;;11.30;99.90;;;;;;5016245;28;20471;-60
2023/10/29 06:47:07;;;;;;;2.20;2.00;;;11.40;99.90;;;;;;5017852;28;20559;-59
2023/10/29 06:49:35;;;;;;;2.80;2.53;;;11.40;99.90;;;;;;5021412;28;20577;-60
2023/10/29 06:52:03;;;;;;;2.93;2.23;;;11.40;99.90;;;;;;5017514;28;20583;-60
2023/10/29 06:54:32;;;;;;;2.90;2.30;;;11.40;99.90;;;;;;5019900;28;20504;-60
2023/10/29 06:57:01;;;;;;;2.50;2.30;;;11.40;99.90;;;;;;5020230;28;20495;-60
2023/10/29 06:59:33;;;;;;;2.50;2.30;;;11.50;99.90;;;;;;5015722;28;20557;-60
2023/10/29 07:02:01;;;;;;;2.33;2.13;;;11.40;99.90;;;;;;5020088;28;20568;-60
2023/10/29 07:04:29;;;;;;;3.57;2.60;;;11.50;99.90;;;;;;5019481;28;20541;-60
2023/10/29 07:06:58;;;;;;;2.03;1.90;;;11.50;99.90;;;;;;5015402;28;20472;-60
2023/10/29 07:09:26;;;;;;;2.73;2.50;;;11.50;99.90;;;;;;5016857;28;20518;-59
2023/10/29 07:11:56;;;;;;;2.30;2.10;;;11.50;99.90;;;;;;5015900;28;20486;-60
2023/10/29 07:14:25;;;;;;;3.27;2.10;;;11.50;99.90;;;;;;5018139;28;20488;-59
2023/10/29 07:16:53;;;;;;;4.33;2.17;;;11.60;99.90;;;;;;5021308;28;20475;-59
2023/10/29 07:19:21;;;;;;;2.63;2.07;;;11.60;99.90;;;;;;5017243;28;20491;-60
2023/10/29 07:21:50;;;;;;;4.40;1.97;;;11.70;99.90;;;;;;5016634;28;20581;-60
2023/10/29 07:24:18;;;;;;;2.57;2.07;;;11.70;99.90;;;;;;5014625;28;24511;-60
2023/10/29 07:26:46;;;;;;;2.20;2.00;;;11.70;99.90;;;;;;5017991;28;20495;-60
2023/10/29 07:29:14;;;;;;;2.70;1.90;;;11.70;99.90;;;;;;5018108;28;20494;-60
2023/10/29 07:31:43;;;;;;;2.40;2.13;;;11.70;99.90;;;;;;5017319;28;20475;-60
2023/10/29 07:34:11;;;;;;;3.83;2.00;;;11.80;99.90;;;;;;5010430;28;20491;-60
2023/10/29 07:36:39;;;;;;;2.10;1.83;;;11.90;99.90;;;;;;4986517;28;20478;-60
2023/10/29 07:39:07;;;;;;;2.70;1.70;;;11.90;99.90;;;;;;4998469;28;20492;-60
2023/10/29 07:41:35;;;;;;;2.20;1.90;;;12.00;99.90;;;;;;5004582;28;20483;-59
2023/10/29 07:44:04;;;;;;;2.20;1.70;;;12.00;99.90;;;;;;5011225;28;21033;-59
2023/10/29 07:46:32;;;;;;;1.60;1.50;;;12.10;99.90;;;;;;5013932;28;20564;-60
2023/10/29 07:49:02;;;;;;;2.60;1.53;;;12.10;99.90;;;;;;5008939;28;20577;-60
2023/10/29 07:51:30;;;;;;;1.83;1.50;;;12.10;99.90;;;;;;5012557;28;20490;-59
2023/10/29 07:53:58;;;;;;;1.77;1.67;;;12.20;99.90;;;;;;5013336;28;20904;-59
2023/10/29 07:56:28;;;;;;;3.67;1.90;;;12.20;99.90;;;;;;5017409;28;20991;-59
2023/10/29 07:58:56;;;;;;;2.20;1.47;;;12.20;99.90;;;;;;5017082;28;20515;-59
2023/10/29 08:01:24;;;;;;;1.60;1.50;;;12.20;99.90;;;;;;5014877;28;20543;-58
2023/10/29 08:03:55;;;;;;;1.97;1.77;;;12.20;99.90;;;;;;5018064;28;20460;-59
2023/10/29 08:06:25;;;;;;;2.90;1.60;;;12.30;99.90;;;;;;5016327;28;20857;-59
2023/10/29 08:08:53;;;;;;;1.70;1.60;;;12.30;99.90;;;;;;5019071;28;20540;-59
2023/10/29 08:11:22;;;;;;;2.23;1.83;;;12.30;99.90;;;;;;5020082;28;20511;-59
2023/10/29 08:13:51;;;;;;;2.53;1.70;;;12.40;99.90;;;;;;5017385;28;20491;-60
2023/10/29 08:16:19;;;;;;;1.90;1.70;;;12.40;99.90;;;;;;5019304;28;20522;-59
2023/10/29 08:18:47;;;;;;;3.00;1.73;;;12.40;99.90;;;;;;5012801;28;20924;-59
2023/10/29 08:21:17;;;;;;;3.30;1.40;;;12.30;99.90;;;;;;5012373;28;20634;-59
2023/10/29 08:23:47;;;;;;;2.43;1.57;;;12.30;99.90;;;;;;5015538;28;20475;-59
2023/10/29 08:26:16;;;;;;;2.60;1.50;;;12.30;99.90;;;;;;5011499;28;20881;-60
2023/10/29 08:28:44;;;;;;;1.87;1.47;;;12.30;99.90;;;;;;5017965;28;20498;-61
2023/10/29 08:31:12;;;;;;;1.80;1.50;;;12.30;99.90;;;;;;5017685;28;20541;-60
2023/10/29 08:33:41;;;;;;;2.10;1.40;;;12.30;99.90;;;;;;5021413;28;21665;-60
2023/10/29 08:36:09;;;;;;;2.27;1.50;;;12.40;99.90;;;;;;5015694;28;20470;-61
2023/10/29 08:38:38;;;;;;;1.40;1.30;;;12.40;99.90;;;;;;5013306;28;20491;-60
2023/10/29 08:41:15;;;;;;;2.97;1.83;;;12.40;99.90;;;;;;5017883;28;20586;-60
2023/10/29 08:43:44;;;;;;;2.23;1.67;;;12.50;99.90;;;;;;5017051;28;20479;-60
2023/10/29 08:46:12;;;;;;;1.90;1.57;;;12.60;99.90;;;;;;5014060;28;20473;-61
2023/10/29 08:48:40;;;;;;;1.77;1.43;;;12.60;99.90;;;;;;5016776;28;21035;-61
2023/10/29 08:51:09;;;;;;;2.53;1.40;;;12.70;99.90;;;;;;5016636;28;20509;-63
2023/10/29 08:53:37;;;;;;;2.73;1.50;;;12.80;99.90;;;;;;5017101;28;20591;-61
2023/10/29 08:56:06;;;;;;;1.60;1.30;;;12.80;99.90;;;;;;5018791;28;20478;-61
2023/10/29 08:58:35;;;;;;;1.70;1.57;;;12.80;99.90;;;;;;5019618;28;20559;-61
2023/10/29 09:01:07;;;;;;;3.23;1.40;;;12.90;99.90;;;;;;5019083;28;20992;-61
2023/10/29 09:03:36;;;;;;;1.50;1.40;;;12.90;99.90;;;;;;5024902;28;20471;-61
2023/10/29 09:06:05;;;;;;;1.20;1.10;;;13.00;99.90;;;;;;5017817;28;20606;-61
2023/10/29 09:08:34;;;;;;;2.97;1.40;;;13.00;99.90;;;;;;5015848;28;21264;-61
2023/10/29 09:11:02;;;;;;;1.67;1.43;;;13.10;99.90;;;;;;5020286;28;20961;-61
2023/10/29 09:13:31;;;;;;;1.47;1.40;;;13.20;99.90;;;;;;5024602;28;20501;-61
2023/10/29 09:16:00;;;;;;;2.03;1.40;;;13.20;99.90;;;;;;5020352;28;20567;-60
2023/10/29 09:18:28;;;;;;;2.50;1.73;;;13.30;99.90;;;;;;5020860;28;20478;-61
2023/10/29 09:20:57;;;;;;;2.20;1.60;;;13.30;99.90;;;;;;5022037;28;20480;-61
2023/10/29 09:23:27;;;;;;;2.03;1.47;;;13.30;99.90;;;;;;5016776;28;20473;-61
2023/10/29 09:25:55;;;;;;;2.67;1.80;;;13.40;99.90;;;;;;5019270;28;20528;-61
2023/10/29 09:28:23;;;;;;;1.70;1.60;;;13.40;99.90;;;;;;5020079;28;20983;-61
2023/10/29 09:30:51;;;;;;;4.73;2.87;;;13.50;99.90;;;;;;5016811;28;20942;-61
2023/10/29 09:33:21;;;;;;;1.70;1.50;;;13.50;99.90;;;;;;5021228;28;20463;-61
2023/10/29 09:35:49;;;;;;;2.97;1.50;;;13.60;99.90;;;;;;5017088;28;20581;-61
2023/10/29 09:38:20;;;;;;;1.43;1.33;;;13.70;99.90;;;;;;5018971;28;20475;-61
2023/10/29 09:40:51;;;;;;;1.23;1.13;;;13.70;99.90;;;;;;5012706;28;20528;-61
2023/10/29 09:43:27;;;;;;;1.40;1.20;;;13.80;99.90;;;;;;5017922;28;20857;-61
2023/10/29 09:45:56;;;;;;;3.60;1.37;;;13.90;99.90;;;;;;5016765;28;20474;-60
2023/10/29 09:48:26;;;;;;;2.30;1.60;;;14.00;99.90;;;;;;5020104;28;20958;-61
2023/10/29 09:50:55;;;;;;;1.90;1.40;;;13.90;99.90;;;;;;5019914;28;20518;-61
2023/10/29 09:53:24;;;;;;;2.17;1.50;;;14.00;99.90;;;;;;5018850;28;20501;-61
2023/10/29 09:55:54;;;;;;;1.87;1.20;;;14.00;99.90;;;;;;5013165;28;20498;-62
2023/10/29 09:58:23;;;;;;;1.93;1.30;;;14.10;99.90;;;;;;5016720;28;20470;-61
2023/10/29 10:00:52;;;;;;;3.27;1.23;;;14.20;99.90;;;;;;5015537;28;20499;-60
2023/10/29 10:03:20;;;;;;;2.30;1.40;;;14.30;99.90;;;;;;5014917;28;20475;-60
2023/10/29 10:05:50;;;;;;;1.87;1.17;;;14.30;99.90;;;;;;5011325;28;20484;-60
2023/10/29 10:08:24;;;;;;;2.13;1.37;;;14.40;99.90;;;;;;5008961;28;20468;-60
2023/10/29 10:10:53;;;;;;;7.03;1.70;;;14.50;99.90;;;;;;5012719;28;21809;-61
2023/10/29 10:13:36;;;;;;;1.93;1.20;;;14.60;99.90;;;;;;5010058;28;20499;-63
2023/10/29 10:16:10;;;;;;;3.20;1.47;;;14.70;99.90;;;;;;5011343;28;20699;-63
2023/10/29 10:18:50;;;;;;;3.13;1.23;;;14.80;99.90;;;;;;5013614;28;20529;-64
2023/10/29 10:21:20;;;;;;;2.10;1.33;;;14.90;99.90;;;;;;5016120;28;20582;-63
2023/10/29 10:23:50;;;;;;;1.67;1.20;;;15.00;99.90;;;;;;5017752;28;20479;-61
2023/10/29 10:26:28;;;;;;;1.83;1.37;;;15.00;99.90;;;;;;5014797;28;20463;-63
2023/10/29 10:28:57;;;;;;;2.50;1.40;;;15.00;99.90;;;;;;5010399;28;20932;-62
2023/10/29 10:31:27;;;;;;;2.17;1.63;;;15.10;99.90;;;;;;5009572;28;21070;-65
2023/10/29 10:34:10;;;;;;;1.83;1.73;;;15.20;99.90;;;;;;5011465;28;20960;-63
2023/10/29 10:36:40;;;;;;;1.87;1.60;;;15.20;99.90;;;;;;5015391;28;20518;-63
2023/10/29 10:39:10;;;;;;;2.20;1.70;;;15.40;99.90;;;;;;5013031;28;20489;-62
2023/10/29 10:41:41;;;;;;;2.87;1.30;;;15.40;99.90;;;;;;5017503;28;20479;-63
2023/10/29 10:44:11;;;;;;;2.00;1.37;;;15.60;99.90;;;;;;5011189;28;20468;-62
2023/10/29 10:46:47;;;;;;;4.70;1.27;;;15.70;99.90;;;;;;5013554;28;20479;-63
2023/10/29 10:49:15;;;;;;;1.40;1.03;;;15.80;99.90;;;;;;5012576;28;21048;-62
2023/10/29 10:51:47;;;;;;;1.30;1.10;;;15.90;99.90;;;;;;5009137;28;20503;-62
2023/10/29 10:54:18;;;;;;;1.20;0.80;;;16.10;99.90;;;;;;5010111;28;20483;-64
2023/10/29 10:56:47;;;;;;;1.77;1.40;;;16.20;99.90;;;;;;5016603;28;21054;-65
2023/10/29 10:59:16;;;;;;;2.23;1.30;;;16.20;99.90;;;;;;5016678;28;20999;-62
2023/10/29 11:01:44;;;;;;;2.23;1.40;;;16.20;99.90;;;;;;5014983;28;20499;-63
2023/10/29 11:04:13;;;;;;;1.53;1.30;;;16.30;99.90;;;;;;5011495;28;20471;-62
2023/10/29 11:06:43;;;;;;;1.20;1.10;;;16.30;99.90;;;;;;5010776;28;20476;-63
2023/10/29 11:09:14;;;;;;;1.50;1.00;;;16.30;99.90;;;;;;5016358;28;20484;-62
2023/10/29 11:11:46;;;;;;;1.67;1.10;;;16.40;99.90;;;;;;5015216;28;20506;-64
2023/10/29 11:14:16;;;;;;;2.10;1.20;;;16.40;99.90;;;;;;5016416;28;20865;-66
2023/10/29 11:16:49;;;;;;;1.57;1.00;;;16.50;99.90;;;;;;5017596;28;20928;-64
2023/10/29 11:19:39;;;;;;;2.10;0.73;;;16.60;99.90;;;;;;5018227;28;20490;-67
2023/10/29 11:22:18;;;;;;;1.23;0.90;;;16.90;99.90;;;;;;5015365;28;20495;-63
2023/10/29 11:25:20;;;;;;;1.87;1.00;;;17.40;99.90;;;;;;5015975;28;20510;-59
2023/10/29 11:27:49;;;;;;;1.23;0.90;;;17.80;99.90;;;;;;5013375;28;20575;-59
2023/10/29 11:30:20;;;;;;;1.70;0.97;;;18.20;99.90;;;;;;5013976;28;20561;-60
2023/10/29 11:33:17;;;;;;;2.63;1.20;;;18.80;99.90;;;;;;5017155;28;20467;-60
2023/10/29 11:35:46;;;;;;;2.40;1.00;;;20.50;99.90;;;;;;5016145;28;20933;-60
2023/10/29 11:38:29;;;;;;;1.10;1.00;;;22.60;99.90;;;;;;5015493;28;20471;-63
2023/10/29 11:40:58;;;;;;;2.00;0.97;;;23.90;99.90;;;;;;5015037;28;20537;-63
2023/10/29 11:43:28;;;;;;;2.40;1.03;;;24.90;99.90;;;;;;5018408;28;20576;-60
2023/10/29 11:46:00;;;;;;;1.67;0.97;;;26.20;99.90;;;;;;5014426;28;20786;-60
2023/10/29 11:48:31;;;;;;;2.23;1.10;;;28.20;89.60;;;;;;5009744;28;21036;-60
2023/10/29 11:51:21;;;;;;;5.07;1.20;;;31.20;63.10;;;;;;5014964;28;20491;-61
2023/10/29 11:53:49;;;;;;;1.60;0.80;;;33.70;49.40;;;;;;5019637;28;20993;-62
2023/10/29 11:56:19;;;;;;;2.53;1.40;;;35.60;43.10;;;;;;5018179;28;20630;-60
2023/10/29 11:59:04;;;;;;;1.07;0.97;;;36.60;38.30;;;;;;5018607;28;20474;-62
2023/10/29 12:01:33;;;;;;;1.33;1.00;;;37.00;36.00;;;;;;5015488;28;20509;-61
2023/10/29 12:04:01;;;;;;;1.60;0.80;;;37.90;35.50;;;;;;5019561;28;20490;-62
2023/10/29 12:06:43;;;;;;;1.10;1.00;;;37.00;33.10;;;;;;5016829;28;20708;-61
2023/10/29 12:09:18;;;;;;;1.50;1.10;;;34.40;34.50;;;;;;5019322;28;20572;-62
2023/10/29 12:11:48;;;;;;;1.70;1.40;;;32.70;36.70;;;;;;5016109;28;20565;-61
2023/10/29 12:14:39;;;;;;;1.83;1.10;;;33.60;36.60;;;;;;5019385;28;20969;-61
2023/10/29 12:17:07;;;;;;;2.10;1.40;;;33.30;36.10;;;;;;5019730;28;20502;-62
2023/10/29 12:19:36;;;;;;;1.13;0.97;;;31.70;37.50;;;;;;5014389;28;21148;-61
2023/10/29 12:22:14;;;;;;;1.20;1.10;;;31.20;39.00;;;;;;5017160;28;20491;-61
2023/10/29 12:24:43;;;;;;;1.63;1.30;;;29.90;39.80;;;;;;5013295;28;20487;-60
2023/10/29 12:27:11;;;;;;;1.90;1.20;;;28.50;43.40;;;;;;5017986;28;21015;-60
2023/10/29 12:29:41;;;;;;;3.47;1.30;;;27.40;56.00;;;;;;5016945;28;20948;-62
2023/10/29 12:32:17;;;;;;;2.30;1.40;;;25.90;70.90;;;;;;5018401;28;20492;-61
2023/10/29 12:34:49;;;;;;;2.83;1.37;;;24.50;94.10;;;;;;5003918;28;20471;-61
2023/10/29 12:37:24;;;;;;;2.83;1.50;;;23.80;99.40;;;;;;5014150;28;20499;-60
2023/10/29 12:39:55;;;;;;;1.93;1.47;;;23.10;99.90;;;;;;5017043;28;21267;-60
2023/10/29 12:42:44;;;;;;;3.47;1.70;;;22.70;99.90;;;;;;5015800;28;20903;-60
2023/10/29 12:45:23;;;;;;;2.03;1.30;;;23.10;99.90;;;;;;5018909;28;20463;-61
2023/10/29 12:48:08;;;;;;;2.10;1.53;;;24.30;99.90;;;;;;5015813;28;20979;-64
2023/10/29 12:50:50;;;;;;;1.67;1.30;;;25.70;97.40;;;;;;5013710;28;20493;-60
2023/10/29 12:53:23;;;;;;;2.63;1.33;;;26.70;90.50;;;;;;5019113;28;20475;-59
2023/10/29 12:55:51;;;;;;;2.03;1.50;;;26.80;77.20;;;;;;5017084;28;20492;-62
2023/10/29 12:58:19;;;;;;;2.37;1.37;;;26.40;81.40;;;;;;5014986;28;20495;-62
2023/10/29 13:00:49;;;;;;;1.60;1.37;;;26.70;80.50;;;;;;5014490;28;20586;-60